Time,TemperatureF,DewpointF,PressureIn,WindDirection,WindDirectionDegrees,WindSpeedMPH,WindSpeedGustMPH,Humidity,HourlyPrecipIn,Conditions,Clouds,dailyrainin,SoftwareType,DateUTC
2013-03-31 00:00:00,64.6,40.4,29.90,South,173,10.0,10.0,41,0.00,,,0.00,Wunderground v.1.15,2013-03-31 07:00:00,
2013-03-31 00:10:00,64.3,40.1,29.90,SSE,166,11.0,12.0,41,0.00,,,0.00,Wunderground v.1.15,2013-03-31 07:10:00,
2013-03-31 00:20:00,64.0,39.8,29.90,South,169,11.0,11.0,41,0.00,,,0.00,Wunderground v.1.15,2013-03-31 07:20:00,
2013-03-31 00:30:00,64.1,39.9,29.91,South,172,11.0,11.0,41,0.00,,,0.00,Wunderground v.1.15,2013-03-31 07:30:00,
2013-03-31 00:40:00,63.7,39.5,29.91,South,175,13.0,13.0,41,0.00,,,0.00,Wunderground v.1.15,2013-03-31 07:40:00,
2013-03-31 00:50:00,63.4,39.3,29.91,South,180,12.0,12.0,41,0.00,,,0.00,Wunderground v.1.15,2013-03-31 07:50:00,
2013-03-31 01:00:00,62.7,39.3,29.91,South,181,2.0,2.0,42,0.00,,,0.00,Wunderground v.1.15,2013-03-31 08:00:00,
2013-03-31 01:10:00,63.6,40.1,29.92,South,186,5.0,5.0,42,0.00,,,0.00,Wunderground v.1.15,2013-03-31 08:10:00,
2013-03-31 01:20:00,62.1,39.3,29.92,South,186,2.0,2.0,43,0.00,,,0.00,Wunderground v.1.15,2013-03-31 08:20:00,
2013-03-31 01:30:00,61.5,38.8,29.91,South,186,4.0,4.0,43,0.00,,,0.00,Wunderground v.1.15,2013-03-31 08:30:00,
2013-03-31 01:40:00,60.9,38.8,29.92,South,186,2.0,10.0,44,0.00,,,0.00,Wunderground v.1.15,2013-03-31 08:40:00,
2013-03-31 01:50:00,61.5,38.8,29.91,SSW,196,4.0,11.0,43,0.00,,,0.00,Wunderground v.1.15,2013-03-31 08:50:00,
2013-03-31 02:00:00,62.3,39.5,29.91,South,189,10.0,11.0,43,0.00,,,0.00,Wunderground v.1.15,2013-03-31 09:00:00,
2013-03-31 02:10:00,61.8,39.1,29.91,South,177,14.0,19.0,43,0.00,,,0.00,Wunderground v.1.15,2013-03-31 09:10:00,
2013-03-31 02:20:00,60.6,38.6,29.92,South,188,10.0,10.0,44,0.00,,,0.00,Wunderground v.1.15,2013-03-31 09:20:00,
2013-03-31 02:30:00,59.9,37.9,29.92,SSW,198,3.0,10.0,44,0.00,,,0.00,Wunderground v.1.15,2013-03-31 09:30:00,
2013-03-31 02:40:00,59.0,37.1,29.91,SSW,199,2.0,2.0,44,0.00,,,0.00,Wunderground v.1.15,2013-03-31 09:40:00,
2013-03-31 02:50:00,58.9,37.0,29.91,SSW,200,3.0,10.0,44,0.00,,,0.00,Wunderground v.1.15,2013-03-31 09:50:00,
2013-03-31 03:00:00,59.0,37.1,29.92,West,278,4.0,11.0,44,0.00,,,0.00,Wunderground v.1.15,2013-03-31 10:00:00,
2013-03-31 03:10:00,59.0,35.9,29.92,WSW,256,9.0,9.0,42,0.00,,,0.00,Wunderground v.1.15,2013-03-31 10:10:00,
2013-03-31 03:20:00,57.1,35.4,29.92,WSW,256,6.0,6.0,44,0.00,,,0.00,Wunderground v.1.15,2013-03-31 10:20:00,
2013-03-31 03:30:00,56.2,35.1,29.91,WSW,256,3.0,3.0,45,0.00,,,0.00,Wunderground v.1.15,2013-03-31 10:30:00,
2013-03-31 03:40:00,55.9,34.8,29.91,WSW,256,2.0,10.0,45,0.00,,,0.00,Wunderground v.1.15,2013-03-31 10:40:00,
2013-03-31 03:50:00,55.7,34.7,29.91,WSW,256,2.0,2.0,45,0.00,,,0.00,Wunderground v.1.15,2013-03-31 10:50:00,
2013-03-31 04:00:00,55.5,34.5,29.90,WSW,256,2.0,10.0,45,0.00,,,0.00,Wunderground v.1.15,2013-03-31 11:00:00,
2013-03-31 04:10:00,55.3,34.9,29.91,WSW,256,3.0,10.0,46,0.00,,,0.00,Wunderground v.1.15,2013-03-31 11:10:00,
2013-03-31 04:20:00,55.8,34.8,29.90,WSW,256,5.0,10.0,45,0.00,,,0.00,Wunderground v.1.15,2013-03-31 11:20:00,
2013-03-31 04:30:00,56.4,35.3,29.91,WSW,256,6.0,10.0,45,0.00,,,0.00,Wunderground v.1.15,2013-03-31 11:30:00,
2013-03-31 04:40:00,56.2,35.1,29.91,WSW,256,5.0,5.0,45,0.00,,,0.00,Wunderground v.1.15,2013-03-31 11:40:00,
2013-03-31 04:50:00,55.7,35.2,29.91,WSW,256,1.0,1.0,46,0.00,,,0.00,Wunderground v.1.15,2013-03-31 11:50:00,
2013-03-31 05:00:00,55.4,35.5,29.91,WSW,256,0.0,10.0,47,0.00,,,0.00,Wunderground v.1.15,2013-03-31 12:00:00,
2013-03-31 05:10:00,55.4,35.5,29.91,WSW,256,3.0,10.0,47,0.00,,,0.00,Wunderground v.1.15,2013-03-31 12:10:00,
2013-03-31 05:20:00,55.0,35.1,29.92,WSW,256,4.0,4.0,47,0.00,,,0.00,Wunderground v.1.15,2013-03-31 12:20:00,
2013-03-31 05:30:00,55.5,35.6,29.91,WSW,256,2.0,10.0,47,0.00,,,0.00,Wunderground v.1.15,2013-03-31 12:30:00,
2013-03-31 05:40:00,55.5,36.1,29.92,WSW,256,1.0,1.0,48,0.00,,,0.00,Wunderground v.1.15,2013-03-31 12:40:00,
2013-03-31 05:50:00,56.0,37.1,29.92,WSW,256,2.0,2.0,49,0.00,,,0.00,Wunderground v.1.15,2013-03-31 12:50:00,
2013-03-31 06:00:00,56.2,36.8,29.92,WSW,256,1.0,1.0,48,0.00,,,0.00,Wunderground v.1.15,2013-03-31 13:00:00,
2013-03-31 06:10:00,56.0,37.6,29.92,WSW,256,1.0,10.0,50,0.00,,,0.00,Wunderground v.1.15,2013-03-31 13:10:00,
2013-03-31 06:20:00,56.0,37.1,29.92,WSW,256,2.0,2.0,49,0.00,,,0.00,Wunderground v.1.15,2013-03-31 13:20:00,
2013-03-31 06:30:00,55.7,37.3,29.93,WSW,256,1.0,10.0,50,0.00,,,0.00,Wunderground v.1.15,2013-03-31 13:30:00,
2013-03-31 06:40:00,54.9,37.6,29.93,WSW,256,2.0,10.0,52,0.00,,,0.00,Wunderground v.1.15,2013-03-31 13:40:00,
2013-03-31 06:50:00,54.6,38.3,29.93,WSW,256,4.0,4.0,54,0.00,,,0.00,Wunderground v.1.15,2013-03-31 13:50:00,
2013-03-31 07:00:00,54.6,38.3,29.93,WSW,256,1.0,1.0,54,0.00,,,0.00,Wunderground v.1.15,2013-03-31 14:00:00,
2013-03-31 07:10:00,54.9,40.8,29.94,South,191,5.0,17.0,59,0.00,,,0.00,Wunderground v.1.15,2013-03-31 14:10:00,
2013-03-31 07:20:00,55.7,41.6,29.94,SSE,168,12.0,13.0,59,0.00,,,0.00,Wunderground v.1.15,2013-03-31 14:20:00,
2013-03-31 07:30:00,56.7,41.6,29.94,South,174,12.0,12.0,57,0.00,,,0.00,Wunderground v.1.15,2013-03-31 14:30:00,
2013-03-31 07:40:00,56.9,41.8,29.94,South,179,10.0,11.0,57,0.00,,,0.00,Wunderground v.1.15,2013-03-31 14:40:00,
2013-03-31 07:50:00,57.7,42.1,29.93,South,179,13.0,13.0,56,0.00,,,0.00,Wunderground v.1.15,2013-03-31 14:50:00,
2013-03-31 08:00:00,57.3,41.7,29.94,South,190,6.0,6.0,56,0.00,,,0.00,Wunderground v.1.15,2013-03-31 15:00:00,
2013-03-31 08:10:00,58.5,41.9,29.94,SSW,204,5.0,5.0,54,0.00,,,0.00,Wunderground v.1.15,2013-03-31 15:10:00,
2013-03-31 08:20:00,59.6,42.4,29.94,SSW,213,5.0,5.0,53,0.00,,,0.00,Wunderground v.1.15,2013-03-31 15:20:00,
2013-03-31 08:30:00,60.5,42.3,29.93,SW,214,8.0,10.0,51,0.00,,,0.00,Wunderground v.1.15,2013-03-31 15:30:00,
2013-03-31 08:40:00,61.5,42.2,29.93,SW,214,12.0,13.0,49,0.00,,,0.00,Wunderground v.1.15,2013-03-31 15:40:00,
2013-03-31 08:50:00,62.3,42.3,29.92,SW,217,13.0,14.0,48,0.00,,,0.00,Wunderground v.1.15,2013-03-31 15:50:00,
2013-03-31 09:00:00,62.6,41.5,29.92,SW,235,14.0,17.0,46,0.00,,,0.00,Wunderground v.1.15,2013-03-31 16:00:00,
2013-03-31 09:10:00,63.5,40.6,29.92,SW,232,15.0,18.0,43,0.00,,,0.00,Wunderground v.1.15,2013-03-31 16:10:00,
2013-03-31 09:20:00,63.5,41.2,29.92,South,187,19.0,23.0,44,0.00,,,0.00,Wunderground v.1.15,2013-03-31 16:20:00,
2013-03-31 09:30:00,63.8,41.5,29.92,SSW,201,17.0,19.0,44,0.00,,,0.00,Wunderground v.1.15,2013-03-31 16:30:00,
2013-03-31 09:40:00,64.4,40.2,29.92,SW,227,20.0,21.0,41,0.00,,,0.00,Wunderground v.1.15,2013-03-31 16:40:00,
2013-03-31 09:50:00,65.0,38.1,29.92,WSW,252,21.0,21.0,37,0.00,,,0.00,Wunderground v.1.15,2013-03-31 16:50:00,
2013-03-31 10:00:00,64.9,38.0,29.92,SSW,198,22.0,22.0,37,0.00,,,0.00,Wunderground v.1.15,2013-03-31 17:00:00,
2013-03-31 10:10:00,65.8,38.1,29.92,WSW,248,18.0,18.0,36,0.00,,,0.00,Wunderground v.1.15,2013-03-31 17:10:00,
2013-03-31 10:20:00,65.9,38.2,29.92,SW,220,18.0,20.0,36,0.00,,,0.00,Wunderground v.1.15,2013-03-31 17:20:00,
2013-03-31 10:30:00,66.4,35.6,29.92,WSW,248,20.0,20.0,32,0.00,,,0.00,Wunderground v.1.15,2013-03-31 17:30:00,
2013-03-31 10:40:00,66.4,36.4,29.92,SW,223,18.0,19.0,33,0.00,,,0.00,Wunderground v.1.15,2013-03-31 17:40:00,
2013-03-31 10:50:00,66.8,39.0,29.92,SSW,198,15.0,16.0,36,0.00,,,0.00,Wunderground v.1.15,2013-03-31 17:50:00,
2013-03-31 11:00:00,67.4,38.8,29.92,SW,229,16.0,19.0,35,0.00,,,0.00,Wunderground v.1.15,2013-03-31 18:00:00,
2013-03-31 11:10:00,67.7,36.0,29.91,WSW,246,17.0,18.0,31,0.00,,,0.00,Wunderground v.1.15,2013-03-31 18:10:00,
2013-03-31 11:20:00,67.5,36.6,29.92,West,262,18.0,18.0,32,0.00,,,0.00,Wunderground v.1.15,2013-03-31 18:20:00,
2013-03-31 11:30:00,67.7,36.0,29.91,SW,233,17.0,17.0,31,0.00,,,0.00,Wunderground v.1.15,2013-03-31 18:30:00,
2013-03-31 11:40:00,67.5,35.8,29.91,WSW,241,15.0,16.0,31,0.00,,,0.00,Wunderground v.1.15,2013-03-31 18:40:00,
2013-03-31 11:50:00,68.2,36.4,29.91,SW,222,16.0,16.0,31,0.00,,,0.00,Wunderground v.1.15,2013-03-31 18:50:00,
2013-03-31 12:00:00,68.9,36.2,29.90,West,259,18.0,18.0,30,0.00,,,0.00,Wunderground v.1.15,2013-03-31 19:00:00,
2013-03-31 12:10:00,69.2,36.4,29.90,SW,230,18.0,18.0,30,0.00,,,0.00,Wunderground v.1.15,2013-03-31 19:10:00,
2013-03-31 12:20:00,69.1,37.2,29.90,SW,232,20.0,20.0,31,0.00,,,0.00,Wunderground v.1.15,2013-03-31 19:20:00,
2013-03-31 12:30:00,69.8,36.1,29.90,WSW,246,17.0,18.0,29,0.00,,,0.00,Wunderground v.1.15,2013-03-31 19:30:00,
2013-03-31 12:40:00,70.5,37.6,29.90,WSW,241,18.0,24.0,30,0.00,,,0.00,Wunderground v.1.15,2013-03-31 19:40:00,
2013-03-31 12:50:00,70.7,36.9,29.89,SSW,201,17.0,20.0,29,0.00,,,0.00,Wunderground v.1.15,2013-03-31 19:50:00,
2013-03-31 13:00:00,71.3,37.4,29.89,SSW,209,16.0,18.0,29,0.00,,,0.00,Wunderground v.1.15,2013-03-31 20:00:00,
2013-03-31 13:10:00,71.3,37.4,29.88,SW,219,17.0,17.0,29,0.00,,,0.00,Wunderground v.1.15,2013-03-31 20:10:00,
2013-03-31 13:20:00,71.4,37.5,29.88,WSW,242,19.0,19.0,29,0.00,,,0.00,Wunderground v.1.15,2013-03-31 20:20:00,
2013-03-31 13:30:00,70.7,37.7,29.87,WSW,242,18.0,21.0,30,0.00,,,0.00,Wunderground v.1.15,2013-03-31 20:30:00,
2013-03-31 13:40:00,71.4,38.3,29.87,SW,215,18.0,22.0,30,0.00,,,0.00,Wunderground v.1.15,2013-03-31 20:40:00,
2013-03-31 13:50:00,70.4,39.1,29.87,SW,214,17.0,17.0,32,0.00,,,0.00,Wunderground v.1.15,2013-03-31 20:50:00,
2013-03-31 14:00:00,69.7,40.1,29.86,SW,217,18.0,24.0,34,0.00,,,0.00,Wunderground v.1.15,2013-03-31 21:00:00,
2013-03-31 14:10:00,69.3,39.7,29.86,SSW,205,24.0,24.0,34,0.00,,,0.00,Wunderground v.1.15,2013-03-31 21:10:00,
2013-03-31 14:20:00,69.9,40.2,29.85,SW,232,17.0,21.0,34,0.00,,,0.00,Wunderground v.1.15,2013-03-31 21:20:00,
2013-03-31 14:30:00,70.2,40.5,29.86,SSW,192,18.0,18.0,34,0.00,,,0.00,Wunderground v.1.15,2013-03-31 21:30:00,
2013-03-31 14:40:00,70.6,40.1,29.86,SW,225,19.0,19.0,33,0.00,,,0.00,Wunderground v.1.15,2013-03-31 21:40:00,
2013-03-31 14:50:00,70.3,42.8,29.85,SW,215,22.0,26.0,37,0.00,,,0.00,Wunderground v.1.15,2013-03-31 21:50:00,
2013-03-31 15:00:00,69.9,42.4,29.84,SSW,194,24.0,24.0,37,0.00,,,0.00,Wunderground v.1.15,2013-03-31 22:00:00,
2013-03-31 15:10:00,69.8,42.3,29.85,SSW,196,24.0,24.0,37,0.00,,,0.00,Wunderground v.1.15,2013-03-31 22:10:00,
2013-03-31 15:20:00,70.7,43.1,29.85,SSW,200,24.0,30.0,37,0.00,,,0.00,Wunderground v.1.15,2013-03-31 22:20:00,
2013-03-31 15:30:00,68.8,44.1,29.84,SSW,194,27.0,31.0,41,0.00,,,0.00,Wunderground v.1.15,2013-03-31 22:30:00,
2013-03-31 15:40:00,68.5,43.9,29.85,SSW,206,27.0,28.0,41,0.00,,,0.00,Wunderground v.1.15,2013-03-31 22:40:00,
2013-03-31 15:50:00,69.0,44.3,29.84,SW,229,27.0,29.0,41,0.00,,,0.00,Wunderground v.1.15,2013-03-31 22:50:00,
2013-03-31 16:00:00,68.3,44.3,29.85,WSW,240,27.0,27.0,42,0.00,,,0.00,Wunderground v.1.15,2013-03-31 23:00:00,
2013-03-31 16:10:00,67.2,44.5,29.84,SW,215,29.0,32.0,44,0.00,,,0.00,Wunderground v.1.15,2013-03-31 23:10:00,
2013-03-31 16:20:00,66.6,45.2,29.84,SSW,209,28.0,28.0,46,0.00,,,0.00,Wunderground v.1.15,2013-03-31 23:20:00,
2013-03-31 16:30:00,66.2,45.4,29.85,SW,222,27.0,28.0,47,0.00,,,0.00,Wunderground v.1.15,2013-03-31 23:30:00,
2013-03-31 16:40:00,65.9,45.6,29.84,SSW,211,28.0,31.0,48,0.00,,,0.00,Wunderground v.1.15,2013-03-31 23:40:00,
2013-03-31 16:50:00,64.5,46.0,29.85,SW,214,28.0,32.0,51,0.00,,,0.00,Wunderground v.1.15,2013-03-31 23:50:00,
2013-03-31 17:00:00,64.7,45.6,29.85,SSW,199,29.0,29.0,50,0.00,,,0.00,Wunderground v.1.15,2013-04-01 00:00:00,
2013-03-31 17:10:00,63.4,46.9,29.85,SSW,194,27.0,33.0,55,0.00,,,0.00,Wunderground v.1.15,2013-04-01 00:10:00,
2013-03-31 17:20:00,63.2,46.3,29.85,SSW,202,28.0,30.0,54,0.00,,,0.00,Wunderground v.1.15,2013-04-01 00:20:00,
2013-03-31 17:30:00,62.7,46.8,29.85,South,180,28.0,33.0,56,0.00,,,0.00,Wunderground v.1.15,2013-04-01 00:30:00,
2013-03-31 17:40:00,62.4,47.0,29.85,SSW,206,28.0,28.0,57,0.00,,,0.00,Wunderground v.1.15,2013-04-01 00:40:00,
2013-03-31 17:50:00,62.5,47.1,29.85,South,185,26.0,28.0,57,0.00,,,0.00,Wunderground v.1.15,2013-04-01 00:50:00,
2013-03-31 18:00:00,62.5,46.6,29.85,South,191,25.0,26.0,56,0.00,,,0.00,Wunderground v.1.15,2013-04-01 01:00:00,
2013-03-31 18:10:00,62.2,46.3,29.85,SSW,197,25.0,25.0,56,0.00,,,0.00,Wunderground v.1.15,2013-04-01 01:10:00,
2013-03-31 18:20:00,62.2,45.8,29.86,SSW,200,23.0,25.0,55,0.00,,,0.00,Wunderground v.1.15,2013-04-01 01:20:00,
2013-03-31 18:30:00,61.9,46.5,29.86,SSW,201,22.0,24.0,57,0.00,,,0.00,Wunderground v.1.15,2013-04-01 01:30:00,
2013-03-31 18:40:00,61.2,45.8,29.86,SSW,195,24.0,24.0,57,0.00,,,0.00,Wunderground v.1.15,2013-04-01 01:40:00,
2013-03-31 18:50:00,61.4,46.5,29.86,SSW,194,23.0,23.0,58,0.00,,,0.00,Wunderground v.1.15,2013-04-01 01:50:00,
2013-03-31 19:00:00,61.2,46.3,29.87,SSW,202,19.0,19.0,58,0.00,,,0.00,Wunderground v.1.15,2013-04-01 02:00:00,
2013-03-31 19:10:00,60.8,45.5,29.87,SSW,200,19.0,19.0,57,0.00,,,0.00,Wunderground v.1.15,2013-04-01 02:10:00,
2013-03-31 19:20:00,60.4,45.5,29.87,SSW,213,18.0,26.0,58,0.00,,,0.00,Wunderground v.1.15,2013-04-01 02:20:00,
2013-03-31 19:30:00,60.2,45.8,29.88,SSW,201,20.0,23.0,59,0.00,,,0.00,Wunderground v.1.15,2013-04-01 02:30:00,
2013-03-31 19:40:00,59.5,46.5,29.87,SSW,194,20.0,26.0,62,0.00,,,0.00,Wunderground v.1.15,2013-04-01 02:40:00,
2013-03-31 19:50:00,59.0,47.2,29.88,South,184,22.0,24.0,65,0.00,,,0.00,Wunderground v.1.15,2013-04-01 02:50:00,
2013-03-31 20:00:00,58.9,46.7,29.89,South,175,21.0,21.0,64,0.00,,,0.00,Wunderground v.1.15,2013-04-01 03:00:00,
2013-03-31 20:10:00,59.0,47.2,29.89,South,189,21.0,21.0,65,0.00,,,0.00,Wunderground v.1.15,2013-04-01 03:10:00,
2013-03-31 20:20:00,59.0,46.4,29.90,South,184,22.0,22.0,63,0.00,,,0.00,Wunderground v.1.15,2013-04-01 03:20:00,
2013-03-31 20:30:00,59.0,46.8,29.90,South,183,17.0,17.0,64,0.00,,,0.00,Wunderground v.1.15,2013-04-01 03:30:00,
2013-03-31 20:40:00,58.6,46.5,29.90,South,184,15.0,19.0,64,0.00,,,0.00,Wunderground v.1.15,2013-04-01 03:40:00,
2013-03-31 20:50:00,58.3,47.0,29.91,South,176,17.0,17.0,66,0.00,,,0.00,Wunderground v.1.15,2013-04-01 03:50:00,
2013-03-31 21:00:00,58.4,46.3,29.91,South,172,13.0,13.0,64,0.00,,,0.00,Wunderground v.1.15,2013-04-01 04:00:00,
2013-03-31 21:10:00,59.0,45.6,29.91,SW,221,13.0,14.0,61,0.00,,,0.00,Wunderground v.1.15,2013-04-01 04:10:00,
2013-03-31 21:20:00,58.3,46.2,29.92,SSW,202,11.0,11.0,64,0.00,,,0.00,Wunderground v.1.15,2013-04-01 04:20:00,
2013-03-31 21:30:00,58.0,45.9,29.92,South,191,12.0,12.0,64,0.00,,,0.00,Wunderground v.1.15,2013-04-01 04:30:00,
2013-03-31 21:40:00,58.1,45.1,29.92,SW,222,12.0,12.0,62,0.00,,,0.00,Wunderground v.1.15,2013-04-01 04:40:00,
2013-03-31 21:50:00,57.8,44.9,29.92,SSW,206,13.0,14.0,62,0.00,,,0.00,Wunderground v.1.15,2013-04-01 04:50:00,
2013-03-31 22:00:00,57.4,45.7,29.92,SSW,213,14.0,14.0,65,0.00,,,0.00,Wunderground v.1.15,2013-04-01 05:00:00,
2013-03-31 22:10:00,57.2,45.5,29.92,SSW,211,10.0,13.0,65,0.00,,,0.00,Wunderground v.1.15,2013-04-01 05:10:00,
2013-03-31 22:20:00,56.7,45.9,29.92,South,183,13.0,18.0,67,0.00,,,0.00,Wunderground v.1.15,2013-04-01 05:20:00,
2013-03-31 22:30:00,56.0,46.0,29.94,South,178,13.0,23.0,69,0.00,,,0.00,Wunderground v.1.15,2013-04-01 05:30:00,
2013-03-31 22:40:00,56.0,45.6,29.94,South,180,16.0,16.0,68,0.00,,,0.00,Wunderground v.1.15,2013-04-01 05:40:00,
2013-03-31 22:50:00,57.0,44.9,29.93,SSW,198,13.0,16.0,64,0.00,,,0.00,Wunderground v.1.15,2013-04-01 05:50:00,
2013-03-31 23:00:00,56.1,45.3,29.93,SSW,192,13.0,15.0,67,0.00,,,0.00,Wunderground v.1.15,2013-04-01 06:00:00,
2013-03-31 23:10:00,55.7,44.9,29.94,SSW,192,11.0,11.0,67,0.00,,,0.00,Wunderground v.1.15,2013-04-01 06:10:00,
2013-03-31 23:20:00,56.1,44.5,29.93,SSW,192,8.0,8.0,65,0.00,,,0.00,Wunderground v.1.15,2013-04-01 06:20:00,
2013-03-31 23:30:00,56.2,43.8,29.93,South,183,10.0,14.0,63,0.00,,,0.00,Wunderground v.1.15,2013-04-01 06:30:00,
2013-03-31 23:40:00,56.7,43.0,29.93,South,186,14.0,14.0,60,0.00,,,0.00,Wunderground v.1.15,2013-04-01 06:40:00,
2013-03-31 23:50:00,56.2,42.9,29.93,South,184,12.0,16.0,61,0.00,,,0.00,Wunderground v.1.15,2013-04-01 06:50:00,